createdAt,value
2022-10-18T00:00:16.848Z,89.133333
2022-10-18T00:05:16.991Z,89.433333
2022-10-18T00:10:16.928Z,89.629167
2022-10-18T00:15:16.876Z,89.666667
2022-10-18T00:20:17.035Z,89.983333
2022-10-18T00:25:17.222Z,90.537500
2022-10-18T00:30:16.989Z,90.237500
2022-10-18T00:35:17.133Z,90.700000
2022-10-18T00:40:17.128Z,90.400000
2022-10-18T00:45:16.801Z,90.745833
2022-10-18T00:50:16.985Z,90.750000
2022-10-18T00:55:16.915Z,90.720833
2022-10-18T01:00:16.843Z,91.179167
2022-10-18T01:05:17.193Z,91.458333
2022-10-18T01:10:17.408Z,91.008333
2022-10-18T01:15:16.838Z,91.141667
2022-10-18T01:20:16.834Z,91.320833
2022-10-18T01:25:16.837Z,91.666667
2022-10-18T01:30:17.207Z,91.045833
2022-10-18T01:35:16.960Z,91.320833
2022-10-18T01:40:17.117Z,91.616667
2022-10-18T01:45:16.972Z,91.770833
2022-10-18T01:50:17.104Z,91.591667
2022-10-18T01:55:17.069Z,91.837500
2022-10-18T02:00:16.813Z,92.050000
2022-10-18T02:05:16.864Z,92.150000
2022-10-18T02:10:16.909Z,91.525000
2022-10-18T02:15:17.051Z,91.816667
2022-10-18T02:20:17.088Z,91.825000
2022-10-18T02:25:17.017Z,92.091667
2022-10-18T02:30:16.919Z,91.675000
2022-10-18T02:35:17.196Z,92.583333
2022-10-18T02:40:16.808Z,91.991667
2022-10-18T02:45:16.895Z,92.029167
2022-10-18T02:50:17.197Z,92.233333
2022-10-18T02:55:17.569Z,92.237500
2022-10-18T03:00:17.281Z,92.087500
2022-10-18T03:05:17.275Z,92.233333
2022-10-18T03:10:16.818Z,92.128000
2022-10-18T03:15:16.815Z,92.175000
2022-10-18T03:20:16.957Z,92.362500
2022-10-18T03:25:16.838Z,92.400000
2022-10-18T03:30:16.900Z,92.616667
2022-10-18T03:35:16.711Z,92.604167
2022-10-18T03:40:16.897Z,92.750000
2022-10-18T03:45:16.734Z,92.654167
2022-10-18T03:50:16.792Z,92.670833
2022-10-18T03:55:17.022Z,92.900000
2022-10-18T04:00:16.942Z,92.860000
2022-10-18T04:05:16.858Z,92.748000
2022-10-18T04:10:17.187Z,92.700000
2022-10-18T04:15:16.965Z,92.684000
2022-10-18T04:20:16.993Z,92.700000
2022-10-18T04:25:16.865Z,92.944000
2022-10-18T04:30:17.314Z,92.900000
2022-10-18T04:35:16.819Z,92.884000
2022-10-18T04:40:16.921Z,92.832000
2022-10-18T04:45:16.869Z,92.780000
2022-10-18T04:50:16.914Z,92.732000
2022-10-18T04:55:17.310Z,92.752000
2022-10-18T05:00:17.489Z,92.716000
2022-10-18T05:05:17.175Z,92.900000
2022-10-18T05:10:17.407Z,92.992000
2022-10-18T05:15:17.513Z,92.740000
2022-10-18T05:20:16.880Z,92.780000
2022-10-18T05:25:16.866Z,92.636000
2022-10-18T05:30:16.860Z,92.680000
2022-10-18T05:35:19.598Z,92.730769
2022-10-18T05:40:19.223Z,92.791667
2022-10-18T05:45:19.852Z,92.750000
2022-10-18T05:50:19.541Z,92.704167
2022-10-18T05:55:20.058Z,92.729167
2022-10-18T06:00:19.187Z,92.666667
2022-10-18T06:05:19.248Z,92.600000
2022-10-18T06:10:19.373Z,92.695833
2022-10-18T06:15:19.563Z,92.858333
2022-10-18T06:20:19.381Z,92.783333
2022-10-18T06:25:19.550Z,92.716667
2022-10-18T06:30:19.574Z,92.645833
2022-10-18T06:35:19.260Z,92.766667
2022-10-18T06:40:19.414Z,92.700000
2022-10-18T06:45:19.213Z,92.654167
2022-10-18T06:50:16.858Z,92.558333
2022-10-18T06:55:17.103Z,92.448000
2022-10-18T07:00:16.854Z,92.400000
2022-10-18T07:05:16.897Z,92.316667
2022-10-18T07:10:17.166Z,92.283333
2022-10-18T07:15:17.041Z,92.295833
2022-10-18T07:20:17.013Z,92.337500
2022-10-18T07:25:16.741Z,92.408333
2022-10-18T07:30:16.964Z,92.420833
2022-10-18T07:35:16.731Z,92.466667
2022-10-18T07:40:17.280Z,92.483333
2022-10-18T07:45:16.854Z,92.554167
2022-10-18T07:50:16.768Z,92.420833
2022-10-18T07:55:17.087Z,92.687500
2022-10-18T08:00:16.902Z,92.536000
2022-10-18T08:05:17.219Z,92.237500
2022-10-18T08:10:17.331Z,91.941667
2022-10-18T08:15:16.866Z,91.816667
2022-10-18T08:20:29.739Z,91.575000
2022-10-18T08:25:17.166Z,91.452000
2022-10-18T08:30:16.737Z,91.475000
2022-10-18T08:35:16.696Z,91.320833
2022-10-18T08:40:16.785Z,91.595833
2022-10-18T08:45:30.051Z,91.704000
2022-10-18T08:50:16.766Z,91.624000
2022-10-18T08:55:16.732Z,91.245833
2022-10-18T09:00:16.901Z,91.166667
2022-10-18T09:05:16.800Z,91.091667
2022-10-18T09:10:16.798Z,91.000000
2022-10-18T09:15:16.652Z,90.750000
2022-10-18T09:20:16.709Z,90.675000
2022-10-18T09:25:16.839Z,90.766667
2022-10-18T09:30:16.829Z,90.741667
2022-10-18T09:35:16.745Z,90.608000
2022-10-18T09:40:19.038Z,90.500000
2022-10-18T09:45:17.170Z,90.066667
2022-10-18T09:50:17.103Z,89.845833
2022-10-18T09:55:16.960Z,89.800000
2022-10-18T10:00:16.821Z,90.016667
2022-10-18T10:05:16.815Z,90.258333
2022-10-18T10:10:17.173Z,90.312500
2022-10-18T10:15:16.960Z,90.558333
2022-10-18T10:20:16.683Z,90.758333
2022-10-18T10:25:16.708Z,90.891667
2022-10-18T10:30:16.886Z,91.233333
2022-10-18T10:35:22.783Z,90.983333
2022-10-18T10:40:22.067Z,91.058333
2022-10-18T10:45:16.748Z,91.029167
2022-10-18T10:50:16.654Z,91.158333
2022-10-18T10:55:33.978Z,91.220000
2022-10-18T11:00:16.703Z,91.495833
2022-10-18T11:05:16.663Z,91.450000
2022-10-18T11:10:16.759Z,91.437500
2022-10-18T11:15:16.895Z,91.600000
2022-10-18T11:20:16.904Z,91.437500
2022-10-18T11:25:17.014Z,91.500000
2022-10-18T11:30:16.967Z,91.450000
2022-10-18T11:35:16.595Z,91.566667
2022-10-18T11:40:17.486Z,91.500000
2022-10-18T11:45:17.321Z,91.450000
2022-10-18T11:50:16.864Z,91.258333
2022-10-18T11:55:16.638Z,91.196000
2022-10-18T12:00:16.864Z,91.216667
2022-10-18T12:05:24.799Z,91.229167
2022-10-18T12:10:22.151Z,91.308333
2022-10-18T12:15:16.720Z,91.350000
2022-10-18T12:20:16.780Z,91.437500
2022-10-18T12:25:16.926Z,91.512500
2022-10-18T12:30:16.662Z,91.628000
2022-10-18T12:35:16.630Z,91.512500
2022-10-18T12:40:18.844Z,91.544000
2022-10-18T12:45:16.946Z,91.466667
2022-10-18T12:50:16.914Z,91.572000
2022-10-18T12:55:17.839Z,91.529167
2022-10-18T13:00:16.629Z,91.288000
2022-10-18T13:05:28.163Z,91.566667
2022-10-18T13:10:16.668Z,91.425000
2022-10-18T13:15:25.566Z,91.529167
2022-10-18T13:20:31.769Z,91.479167
2022-10-18T13:25:16.659Z,91.533333
2022-10-18T13:30:16.997Z,91.583333
2022-10-18T13:35:16.544Z,91.684000
2022-10-18T13:40:16.737Z,91.750000
2022-10-18T13:45:16.657Z,91.750000
2022-10-18T13:50:17.104Z,91.745833
2022-10-18T13:55:16.584Z,91.900000
2022-10-18T14:00:17.101Z,91.825000
2022-10-18T14:05:25.241Z,91.666667
2022-10-18T14:10:17.016Z,91.420833
2022-10-18T14:15:17.216Z,91.116667
2022-10-18T14:20:16.557Z,91.204000
2022-10-18T14:25:16.641Z,91.212500
2022-10-18T14:30:16.627Z,91.100000
2022-10-18T14:35:33.463Z,91.050000
2022-10-18T14:40:16.585Z,91.183333
2022-10-18T14:45:16.819Z,90.941667
2022-10-18T14:50:16.880Z,90.708333
2022-10-18T14:55:16.798Z,90.645833
2022-10-18T15:00:16.758Z,90.500000
2022-10-18T15:05:16.749Z,90.583333
2022-10-18T15:10:16.636Z,90.470833
2022-10-18T15:15:16.672Z,90.564000
2022-10-18T15:20:16.567Z,90.825000
2022-10-18T15:25:16.858Z,90.975000
2022-10-18T15:30:16.923Z,91.316667
2022-10-18T15:35:16.971Z,91.587500
2022-10-18T15:40:17.204Z,91.748000
2022-10-18T15:45:16.612Z,91.862500
2022-10-18T15:50:17.104Z,91.962500
2022-10-18T15:55:16.580Z,92.079167
2022-10-18T16:00:16.641Z,92.100000
2022-10-18T16:05:16.557Z,92.116667
2022-10-18T16:10:16.544Z,92.133333
2022-10-18T16:15:16.926Z,92.096000
2022-10-18T16:20:16.808Z,92.100000
2022-10-18T16:25:16.744Z,92.045833
2022-10-18T16:30:16.768Z,92.004000
2022-10-18T16:35:16.632Z,91.991667
2022-10-18T16:40:16.747Z,92.037500
2022-10-18T16:45:16.543Z,92.112500
2022-10-18T16:50:16.580Z,92.250000
2022-10-18T16:55:16.649Z,92.212500
2022-10-18T17:00:17.003Z,92.283333
2022-10-18T17:05:16.948Z,92.316667
2022-10-18T17:10:16.734Z,92.404167
2022-10-18T17:15:16.760Z,92.558333
2022-10-18T17:20:16.574Z,92.550000
2022-10-18T17:25:16.541Z,92.766667
2022-10-18T17:30:16.882Z,92.776000
2022-10-18T17:35:16.889Z,92.868000
2022-10-18T17:40:16.581Z,92.812000
2022-10-18T17:45:16.554Z,92.783333
2022-10-18T17:50:16.632Z,92.720833
2022-10-18T17:55:17.256Z,92.600000
2022-10-18T18:00:17.108Z,92.736000
2022-10-18T18:05:16.538Z,92.362500
2022-10-18T18:10:16.654Z,92.487500
2022-10-18T18:15:16.720Z,92.833333
2022-10-18T18:20:16.746Z,92.941667
2022-10-18T18:25:16.752Z,93.095833
2022-10-18T18:30:16.702Z,93.232000
2022-10-18T18:35:16.516Z,93.256000
2022-10-18T18:40:16.732Z,93.387500
2022-10-18T18:45:16.417Z,93.225000
2022-10-18T18:50:16.618Z,93.008333
2022-10-18T18:55:16.615Z,92.844000
2022-10-18T19:00:16.781Z,93.187500
2022-10-18T19:05:16.451Z,93.424000
2022-10-18T19:10:16.580Z,93.262500
2022-10-18T19:15:16.547Z,93.066667
2022-10-18T19:20:16.571Z,92.941667
2022-10-18T19:25:16.670Z,93.070833
2022-10-18T19:30:16.491Z,93.254167
2022-10-18T19:35:16.791Z,93.250000
2022-10-18T19:40:16.534Z,93.200000
2022-10-18T19:45:16.826Z,93.133333
2022-10-18T19:50:16.969Z,93.212500
2022-10-18T19:55:16.836Z,93.216000
2022-10-18T20:00:19.409Z,93.404167
2022-10-18T20:05:16.599Z,93.516667
2022-10-18T20:10:16.464Z,93.550000
2022-10-18T20:15:16.537Z,93.272000
2022-10-18T20:20:16.606Z,93.295833
2022-10-18T20:25:16.564Z,93.291667
2022-10-18T20:30:16.705Z,93.291667
2022-10-18T20:35:16.532Z,93.483333
2022-10-18T20:40:16.570Z,93.483333
2022-10-18T20:45:16.649Z,93.240000
2022-10-18T20:50:16.486Z,93.166667
2022-10-18T20:55:16.451Z,93.200000
2022-10-18T21:00:16.746Z,93.145833
2022-10-18T21:05:16.498Z,93.075000
2022-10-18T21:10:16.678Z,93.191667
2022-10-18T21:15:16.823Z,93.037500
2022-10-18T21:20:17.219Z,93.066667
2022-10-18T21:25:16.934Z,93.279167
2022-10-18T21:30:17.221Z,93.291667
2022-10-18T21:35:16.488Z,93.220833
2022-10-18T21:40:16.521Z,93.364000
2022-10-18T21:45:16.451Z,93.320833
2022-10-18T21:50:16.539Z,93.437500
2022-10-18T21:55:16.785Z,93.350000
2022-10-18T22:00:17.024Z,93.504167
2022-10-18T22:05:16.444Z,93.364000
2022-10-18T22:10:16.508Z,93.325000
2022-10-18T22:15:16.552Z,93.150000
2022-10-18T22:20:16.659Z,93.136000
2022-10-18T22:25:16.389Z,93.287500
2022-10-18T22:30:16.378Z,93.150000
2022-10-18T22:35:16.718Z,93.158333
2022-10-18T22:40:16.492Z,93.433333
2022-10-18T22:45:16.434Z,93.454167
2022-10-18T22:50:16.374Z,93.283333
2022-10-18T22:55:16.404Z,93.145833
2022-10-18T23:00:16.869Z,93.154167
2022-10-18T23:05:16.411Z,93.033333
2022-10-18T23:10:16.663Z,93.016667
2022-10-18T23:15:16.549Z,93.062500
2022-10-18T23:20:16.415Z,92.925000
2022-10-18T23:25:16.525Z,92.950000
2022-10-18T23:30:16.804Z,93.025000
2022-10-18T23:35:16.625Z,92.816667
2022-10-18T23:40:16.472Z,92.933333
2022-10-18T23:45:16.826Z,92.848000
2022-10-18T23:50:16.493Z,93.020833
2022-10-18T23:55:16.710Z,93.033333
